| time (UTC) | temp C | wind direction | speed KPH | gust KPH | rain 1hr cm | rain 24hr cm | rain mn cm | humidity % | barometer mb |
| 20260510230515 | 21 | 181 | 1.6 | 14.5 | 0.00 | 0.25 | 0.25 | 26 | |
| 20260510225516 | 22 | 181 | 9.7 | 16.1 | 0.00 | 0.28 | 0.25 | 25 | |
| 20260510224515 | 22 | 181 | 8.0 | 17.7 | 0.00 | 0.28 | 0.25 | 25 | |
| 20260510223517 | 22 | 181 | 1.6 | 9.7 | 0.00 | 0.28 | 0.25 | 27 | |
| 20260510222536 | 21 | 181 | 6.4 | 16.1 | 0.00 | 0.28 | 0.25 | 28 | |
| 20260510221515 | 21 | 181 | 9.7 | 16.1 | 0.00 | 0.28 | 0.25 | 27 | |
| 20260510220535 | 21 | 181 | 4.8 | 16.1 | 0.00 | 0.28 | 0.25 | 28 | |
| 20260510215515 | 21 | 181 | 3.2 | 19.3 | 0.00 | 0.28 | 0.25 | 27 | |
| 20260510214515 | 21 | 181 | 11.3 | 19.3 | 0.00 | 0.28 | 0.25 | 26 | |
| 20260510213515 | 21 | 181 | 4.8 | 12.9 | 0.00 | 0.28 | 0.25 | 28 | |
| 20260510212515 | 21 | 181 | 9.7 | 17.7 | 0.00 | 0.28 | 0.25 | 27 | |
| 20260510211535 | 21 | 181 | 9.7 | 17.7 | 0.00 | 0.28 | 0.25 | 27 | |
| 20260510210516 | 21 | 181 | 4.8 | 12.9 | 0.00 | 0.28 | 0.25 | 28 | |
| 20260510205515 | 21 | 181 | 11.3 | 20.9 | 0.00 | 0.28 | 0.25 | 28 | |
| 20260510204515 | 21 | 181 | 8.0 | 14.5 | 0.00 | 0.28 | 0.25 | 28 | |
| 20260510203515 | 21 | 181 | 3.2 | 12.9 | 0.00 | 0.28 | 0.25 | 30 | |
| 20260510202536 | 21 | 181 | 6.4 | 16.1 | 0.00 | 0.28 | 0.25 | 30 | |
| 20260510201515 | 20 | 181 | 11.3 | 24.1 | 0.00 | 0.28 | 0.25 | 29 | |
| 20260510200515 | 20 | 181 | 12.9 | 30.6 | 0.00 | 0.28 | 0.25 | 29 | |
| 20260510195516 | 20 | 181 | 4.8 | 16.1 | 0.00 | 0.28 | 0.25 | 30 | |
| 20260510194516 | 20 | 181 | 14.5 | 27.4 | 0.00 | 0.28 | 0.25 | 30 | |
| 20260510193515 | 20 | 181 | 11.3 | 24.1 | 0.00 | 0.28 | 0.25 | 31 | |
| 20260510192515 | 19 | 181 | 16.1 | 30.6 | 0.00 | 0.28 | 0.25 | 30 | |
| 20260510191515 | 20 | 181 | 11.3 | 22.5 | 0.00 | 0.28 | 0.25 | 31 | |
| 20260510190556 | 19 | 181 | 11.3 | 24.1 | 0.00 | 0.28 | 0.25 | 34 | |
| 20260510185515 | 18 | 181 | 12.9 | 24.1 | 0.00 | 0.28 | 0.25 | 35 | |
| 20260510184516 | 18 | 181 | 9.7 | 20.9 | 0.00 | 0.28 | 0.25 | 35 | |
| 20260510183515 | 17 | 181 | 12.9 | 24.1 | 0.00 | 0.28 | 0.25 | 36 | |
| 20260510182515 | 18 | 181 | 12.9 | 20.9 | 0.00 | 0.28 | 0.25 | 37 | |
| 20260510181515 | 18 | 181 | 11.3 | 20.9 | 0.00 | 0.28 | 0.25 | 37 | |
| 20260510180515 | 17 | 181 | 8.0 | 17.7 | 0.00 | 0.28 | 0.25 | 40 | |
| 20260510175515 | 17 | 181 | 12.9 | 24.1 | 0.00 | 0.28 | 0.25 | 39 | |
| 20260510174517 | 18 | 181 | 14.5 | 24.1 | 0.00 | 0.28 | 0.25 | 38 | |
| 20260510173516 | 17 | 181 | 14.5 | 24.1 | 0.00 | 0.28 | 0.25 | 42 | |
| 20260510172515 | 17 | 181 | 14.5 | 25.7 | 0.00 | 0.28 | 0.25 | 43 | |
| 20260510171516 | 16 | 181 | 11.3 | 17.7 | 0.00 | 0.28 | 0.25 | 47 | |
| 20260510170515 | 16 | 181 | 12.9 | 25.7 | 0.00 | 0.28 | 0.25 | 49 | |
| 20260510165515 | 15 | 181 | 11.3 | 20.9 | 0.00 | 0.28 | 0.25 | 53 | |
| 20260510164515 | 15 | 181 | 11.3 | 22.5 | 0.00 | 0.28 | 0.25 | 56 | |
| 20260510163536 | 15 | 181 | 12.9 | 24.1 | 0.00 | 0.28 | 0.25 | 57 | |
| 20260510162515 | 15 | 181 | 11.3 | 19.3 | 0.03 | 0.28 | 0.25 | 60 | |
| 20260510161516 | 13 | 181 | 11.3 | 17.7 | 0.03 | 0.28 | 0.25 | 66 | |
| 20260510160515 | 12 | 181 | 8.0 | 14.5 | 0.03 | 0.28 | 0.25 | 69 | |
| 20260510155515 | 11 | 181 | 6.4 | 16.1 | 0.03 | 0.28 | 0.25 | 79 | |
| 20260510154516 | 11 | 181 | 9.7 | 17.7 | 0.03 | 0.28 | 0.25 | 82 | |
| 20260510153515 | 11 | 181 | 9.7 | 14.5 | 0.03 | 0.28 | 0.25 | 83 | |
| 20260510152515 | 11 | 181 | 4.8 | 11.3 | 0.00 | 0.25 | 0.23 | 81 | |
| 20260510151515 | 11 | 181 | 1.6 | 8.0 | 0.00 | 0.25 | 0.23 | 84 | |
| 20260510150535 | 10 | 181 | 9.7 | 14.5 | 0.00 | 0.25 | 0.23 | 84 | |
| 20260510145516 | 10 | 181 | 8.0 | 11.3 | 0.00 | 0.25 | 0.23 | 85 | |
| 20260510144535 | 10 | 181 | 8.0 | 12.9 | 0.00 | 0.25 | 0.23 | 84 | |
| 20260510143536 | 10 | 181 | 9.7 | 16.1 | 0.00 | 0.25 | 0.23 | 85 | |
| 20260510142516 | 10 | 181 | 11.3 | 17.7 | 0.00 | 0.25 | 0.23 | 87 | |
| 20260510141516 | 10 | 181 | 9.7 | 14.5 | 0.03 | 0.25 | 0.23 | 88 | |
| 20260510140515 | 9 | 181 | 11.3 | 16.1 | 0.03 | 0.25 | 0.23 | 89 | |
| 20260510135515 | 9 | 181 | 9.7 | 12.9 | 0.03 | 0.25 | 0.23 | 88 | |
| 20260510134515 | 10 | 181 | 8.0 | 11.3 | 0.03 | 0.25 | 0.23 | 88 | |
| 20260510133515 | 10 | 181 | 14.5 | 20.9 | 0.03 | 0.25 | 0.23 | 88 | |
| 20260510132515 | 10 | 181 | 11.3 | 17.7 | 0.03 | 0.25 | 0.23 | 88 | |
| 20260510131515 | 10 | 181 | 12.9 | 19.3 | 0.00 | 0.23 | 0.20 | 87 | |
| 20260510130515 | 10 | 181 | 14.5 | 25.7 | 0.00 | 0.23 | 0.20 | 87 | |
| 20260510125515 | 10 | 181 | 11.3 | 24.1 | 0.00 | 0.23 | 0.20 | 87 | |
| 20260510124515 | 10 | 181 | 9.7 | 17.7 | 0.00 | 0.23 | 0.20 | 87 | |
| 20260510123516 | 11 | 181 | 9.7 | 17.7 | 0.00 | 0.23 | 0.20 | 88 | |
| 20260510122515 | 11 | 181 | 11.3 | 20.9 | 0.00 | 0.23 | 0.20 | 87 | |
| 20260510121515 | 11 | 181 | 11.3 | 19.3 | 0.00 | 0.23 | 0.20 | 87 | |
| 20260510120535 | 11 | 181 | 16.1 | 25.7 | 0.00 | 0.23 | 0.20 | 87 | |
| 20260510115515 | 11 | 181 | 14.5 | 24.1 | 0.00 | 0.23 | 0.20 | 82 | |
| 20260510114518 | 11 | 181 | 12.9 | 24.1 | 0.03 | 0.23 | 0.20 | 81 | |
| 20260510113515 | 12 | 181 | 11.3 | 19.3 | 0.15 | 0.23 | 0.20 | 81 | |
| 20260510112515 | 12 | 181 | 12.9 | 19.3 | 0.20 | 0.23 | 0.20 | 80 | |
| 20260510111516 | 11 | 181 | 17.7 | 30.6 | 0.20 | 0.23 | 0.20 | 81 | |
| 20260510110515 | 11 | 181 | 11.3 | 19.3 | 0.20 | 0.23 | 0.20 | 81 | |
| 20260510105516 | 11 | 181 | 14.5 | 25.7 | 0.20 | 0.23 | 0.20 | 81 | |
| 20260510104515 | 11 | 181 | 14.5 | 22.5 | 0.18 | 0.20 | 0.18 | 83 | |
| 20260510103515 | 12 | 181 | 16.1 | 27.4 | 0.05 | 0.08 | 0.05 | 74 | |
| 20260510102515 | 12 | 181 | 16.1 | 32.2 | 0.00 | 0.03 | 0.00 | 65 | |
| 20260510101536 | 13 | 181 | 14.5 | 22.5 | 0.00 | 0.03 | 0.00 | 61 | |
| 20260510100535 | 13 | 181 | 14.5 | 25.7 | 0.00 | 0.03 | 0.00 | 60 | |
| 20260510095515 | 13 | 181 | 14.5 | 27.4 | 0.00 | 0.03 | 0.00 | 60 | |
| 20260510094515 | 13 | 181 | 16.1 | 27.4 | 0.00 | 0.03 | 0.00 | 61 | |
| 20260510093515 | 13 | 181 | 16.1 | 29.0 | 0.00 | 0.03 | 0.00 | 62 | |
| 20260510092515 | 13 | 181 | 14.5 | 24.1 | 0.00 | 0.03 | 0.00 | 63 | |
| 20260510091536 | 13 | 181 | 17.7 | 29.0 | 0.00 | 0.03 | 0.00 | 64 | |
| 20260510090515 | 13 | 181 | 16.1 | 27.4 | 0.00 | 0.03 | 0.00 | 66 | |
| 20260510085517 | 12 | 181 | 16.1 | 32.2 | 0.00 | 0.03 | 0.00 | 69 | |
| 20260510084515 | 13 | 181 | 16.1 | 27.4 | 0.00 | 0.03 | 0.00 | 70 | |
| 20260510083516 | 13 | 181 | 12.9 | 25.7 | 0.00 | 0.03 | 0.00 | 71 | |
| 20260510082515 | 13 | 181 | 12.9 | 19.3 | 0.00 | 0.03 | 0.00 | 72 | |
| 20260510081535 | 13 | 181 | 14.5 | 24.1 | 0.00 | 0.03 | 0.00 | 72 | |
| 20260510080515 | 13 | 181 | 12.9 | 24.1 | 0.00 | 0.03 | 0.00 | 73 | |
| 20260510075516 | 12 | 181 | 11.3 | 24.1 | 0.00 | 0.03 | 0.00 | 75 | |
| 20260510074515 | 12 | 181 | 9.7 | 20.9 | 0.00 | 0.03 | 0.00 | 76 | |
| 20260510073515 | 12 | 181 | 9.7 | 22.5 | 0.00 | 0.03 | 0.00 | 77 | |
| 20260510072515 | 12 | 181 | 9.7 | 17.7 | 0.00 | 0.03 | 0.00 | 77 | |
| 20260510071516 | 12 | 181 | 9.7 | 25.7 | 0.00 | 0.03 | 0.00 | 77 | |
| 20260510070557 | 12 | 181 | 12.9 | 25.7 | 0.00 | 0.03 | 0.00 | 79 | |
| 20260510065516 | 12 | 181 | 12.9 | 22.5 | 0.00 | 0.03 | 0.00 | 82 | |
| 20260510064515 | 12 | 181 | 11.3 | 17.7 | 0.00 | 0.03 | 0.00 | 82 | |
| 20260510063515 | 13 | 181 | 12.9 | 20.9 | 0.00 | 0.03 | 0.00 | 81 | |
| 20260510062516 | 13 | 181 | 11.3 | 19.3 | 0.00 | 0.03 | 0.00 | 79 | |
| 20260510061516 | 13 | 181 | 12.9 | 19.3 | 0.00 | 0.03 | 0.00 | 78 | |
| 20260510060515 | 13 | 181 | 14.5 | 20.9 | 0.00 | 0.03 | 0.00 | 77 | |
| 20260510055516 | 14 | 181 | 8.0 | 14.5 | 0.00 | 0.03 | 0.00 | 78 | |
| 20260510054515 | 14 | 181 | 11.3 | 16.1 | 0.00 | 0.03 | 0.00 | 77 | |
| 20260510053515 | 13 | 181 | 11.3 | 16.1 | 0.00 | 0.03 | 0.00 | 77 | |
| 20260510052516 | 13 | 181 | 14.5 | 24.1 | 0.00 | 0.03 | 0.00 | 78 | |
| 20260510051515 | 13 | 181 | 9.7 | 16.1 | 0.00 | 0.03 | 0.00 | 79 | |
| 20260510050515 | 13 | 181 | 9.7 | 16.1 | 0.00 | 0.03 | 0.00 | 78 | |
| 20260510045535 | 13 | 181 | 11.3 | 16.1 | 0.00 | 0.03 | 0.00 | 76 | |
| 20260510044516 | 14 | 181 | 11.3 | 17.7 | 0.00 | 0.03 | 0.00 | 74 | |
| 20260510043515 | 14 | 181 | 8.0 | 14.5 | 0.00 | 0.03 | 0.00 | 74 | |
| 20260510042516 | 15 | 181 | 8.0 | 12.9 | 0.00 | 0.03 | 0.00 | 72 | |
| 20260510041515 | 16 | 181 | 8.0 | 14.5 | 0.00 | 0.03 | 0.00 | 68 | |
| 20260510040515 | 17 | 181 | 8.0 | 14.5 | 0.00 | 0.03 | 0.00 | 63 | |
| 20260510035515 | 17 | 181 | 9.7 | 16.1 | 0.00 | 0.03 | 0.00 | 61 | |
| 20260510034515 | 17 | 181 | 11.3 | 17.7 | 0.00 | 0.03 | 0.00 | 60 | |
| 20260510033536 | 17 | 181 | 9.7 | 19.3 | 0.00 | 0.03 | 0.00 | 59 | |
| 20260510032515 | 18 | 181 | 8.0 | 19.3 | 0.00 | 0.03 | 0.00 | 60 | |
| 20260510031515 | 18 | 181 | 16.1 | 24.1 | 0.00 | 0.03 | 0.00 | 57 | |
| 20260510030515 | 18 | 181 | 14.5 | 30.6 | 0.00 | 0.03 | 0.00 | 54 | |
| 20260510025515 | 18 | 181 | 12.9 | 24.1 | 0.00 | 0.03 | 0.00 | 54 | |
| 20260510024516 | 19 | 181 | 12.9 | 29.0 | 0.00 | 0.03 | 0.00 | 54 | |
| 20260510023515 | 19 | 181 | 12.9 | 22.5 | 0.00 | 0.03 | 0.00 | 52 | |
| 20260510022515 | 20 | 181 | 19.3 | 29.0 | 0.00 | 0.03 | 0.00 | 49 | |
| 20260510021515 | 20 | 181 | 17.7 | 30.6 | 0.00 | 0.03 | 0.00 | 52 | |
| 20260510020516 | 20 | 181 | 14.5 | 30.6 | 0.00 | 0.03 | 0.00 | 55 | |
| 20260510015515 | 21 | 181 | 12.9 | 24.1 | 0.00 | 0.03 | 0.00 | 53 | |
| 20260510014515 | 22 | 181 | 11.3 | 19.3 | 0.00 | 0.03 | 0.00 | 47 | |
| 20260510013515 | 22 | 181 | 12.9 | 20.9 | 0.00 | 0.03 | 0.00 | 43 | |
| 20260510012555 | 22 | 181 | 12.9 | 20.9 | 0.00 | 0.03 | 0.00 | 44 | |
| 20260510011515 | 22 | 181 | 9.7 | 19.3 | 0.00 | 0.03 | 0.00 | 43 | |
| 20260510010515 | 23 | 181 | 12.9 | 25.7 | 0.00 | 0.03 | 0.00 | 42 | |
| 20260510005516 | 23 | 181 | 17.7 | 37.0 | 0.00 | 0.03 | 0.00 | 41 | |
| 20260510004515 | 23 | 181 | 16.1 | 25.7 | 0.00 | 0.03 | 0.00 | 39 | |
| 20260510003535 | 24 | 181 | 14.5 | 25.7 | 0.00 | 0.03 | 0.00 | 38 | |
| 20260510002515 | 25 | 181 | 22.5 | 35.4 | 0.00 | 0.03 | 0.00 | 37 | |
| 20260510001515 | 25 | 181 | 17.7 | 27.4 | 0.00 | 0.03 | 0.00 | 36 | |
| 20260510000537 | 26 | 181 | 17.7 | 27.4 | 0.00 | 0.03 | 0.00 | 30 | |
| 20260509235516 | 26 | 181 | 16.1 | 27.4 | 0.03 | 0.03 | 0.03 | 30 | |
| 20260509234535 | 27 | 181 | 14.5 | 25.7 | 0.03 | 0.03 | 0.03 | 28 | |
| 20260509233515 | 27 | 181 | 12.9 | 20.9 | 0.03 | 0.03 | 0.03 | 28 | |
| 20260509232515 | 27 | 181 | 11.3 | 19.3 | 0.03 | 0.03 | 0.03 | 30 | |
| 20260509231515 | 26 | 181 | 12.9 | 20.9 | 0.03 | 0.03 | 0.03 | 34 |